Terminal Aerodrome Forecast
Issued by NWS

Home | Current Version | Previous Version | Text Only | Print | Product List | Glossary On
Versions: 1 2 3 4 5 6 7 8 9 10 11 12 13 14 15
000
FTUS46 KSTO 240524
TAFSCK
TAF
KSCK 240524Z 2406/2506 VRB04KT 5SM BR SCT250
     FM241000 14005KT 3SM BR OVC015
     FM241900 15011KT 6SM BR BKN050
     FM242300 17012KT 4SM -RA BR OVC015
     FM250400 29010KT 4SM BR OVC007
      TEMPO 2504/2506 4SM -SHRA OVC007=

USA.gov is the U.S. government's official web portal to all federal, state and local government web resources and services.